Time;durP1;ratioP1;P1;durP2;ratioP2;P2;SDS_P1;SDS_P2;PMS_P1;PMS_P2;Temp;Humidity;BMP_temperature;BMP_pressure;BME280_temperature;BME280_humidity;BME280_pressure;Samples;Min_cycle;Max_cycle;Signal;HPM_P1;HPM_P2
2023/07/15 00:00:50;;;;;;;1.97;1.40;;;21.80;99.90;;;;;;5019803;28;20291;-91
2023/07/15 00:03:18;;;;;;;4.40;1.60;;;21.80;99.90;;;;;;5015563;28;20157;-91
2023/07/15 00:05:44;;;;;;;11.07;1.77;;;21.70;99.90;;;;;;5014930;28;20187;-91
2023/07/15 00:08:10;;;;;;;2.10;1.47;;;21.60;99.90;;;;;;5014435;28;20272;-91
2023/07/15 00:10:38;;;;;;;3.33;1.70;;;21.70;99.90;;;;;;5014211;28;20251;-90
2023/07/15 00:13:05;;;;;;;3.80;1.70;;;21.70;99.90;;;;;;5015055;28;20267;-91
2023/07/15 00:15:31;;;;;;;2.67;1.33;;;22.00;99.90;;;;;;5013737;28;20184;-91
2023/07/15 00:17:57;;;;;;;5.03;1.70;;;21.60;99.90;;;;;;5013859;28;20194;-91
2023/07/15 00:20:22;;;;;;;2.53;1.60;;;21.70;1.00;;;;;;5015748;28;20232;-91
2023/07/15 00:22:49;;;;;;;3.27;1.70;;;21.70;1.00;;;;;;5014140;28;20188;-91
2023/07/15 00:25:17;;;;;;;5.93;1.60;;;21.80;1.00;;;;;;5013969;28;20634;-91
2023/07/15 00:27:44;;;;;;;3.13;1.50;;;21.70;1.00;;;;;;5014417;28;20181;-90
2023/07/15 00:30:16;;;;;;;3.70;1.60;;;21.60;1.00;;;;;;5014326;28;20683;-91
2023/07/15 00:32:47;;;;;;;6.40;1.80;;;21.60;1.00;;;;;;5014552;28;20615;-91
2023/07/15 00:35:19;;;;;;;3.87;1.87;;;21.50;1.00;;;;;;5015630;28;20157;-91
2023/07/15 00:37:45;;;;;;;1.77;1.40;;;21.70;1.00;;;;;;5014058;28;20177;-91
2023/07/15 00:40:11;;;;;;;1.93;1.50;;;21.50;1.00;;;;;;5014317;28;20204;-91
2023/07/15 00:43:02;;;;;;;1.70;1.40;;;21.40;1.00;;;;;;5014041;28;20234;-91
2023/07/15 00:45:27;;;;;;;3.60;1.50;;;21.40;1.00;;;;;;5014405;28;20211;-91
2023/07/15 00:48:23;;;;;;;4.73;1.47;;;21.40;1.00;;;;;;5013855;28;20177;-91
2023/07/15 00:50:49;;;;;;;4.20;1.43;;;21.40;1.00;;;;;;5013650;28;20555;-91
2023/07/15 00:53:14;;;;;;;2.30;1.37;;;21.40;1.00;;;;;;5013553;28;20184;-91
2023/07/15 00:55:40;;;;;;;5.70;1.73;;;21.50;1.00;;;;;;5015370;28;20169;-91
2023/07/15 00:58:05;;;;;;;2.50;1.77;;;21.50;1.00;;;;;;5013660;28;20173;-91
2023/07/15 01:00:31;;;;;;;2.13;1.27;;;21.40;1.00;;;;;;5013180;28;20221;-91
2023/07/15 01:02:57;;;;;;;4.37;1.80;;;21.50;1.00;;;;;;5013673;28;20670;-91
2023/07/15 01:05:22;;;;;;;4.23;1.70;;;21.50;1.00;;;;;;5014916;28;20173;-91
2023/07/15 01:07:48;;;;;;;3.00;1.70;;;21.50;1.00;;;;;;5013359;28;20183;-90
2023/07/15 01:10:13;;;;;;;2.90;1.60;;;21.40;1.00;;;;;;5013504;28;20303;-91
2023/07/15 01:12:39;;;;;;;4.40;1.60;;;21.50;1.00;;;;;;5013122;28;20523;-91
2023/07/15 01:15:06;;;;;;;2.70;1.50;;;21.50;1.00;;;;;;5013163;28;20173;-91
2023/07/15 01:17:32;;;;;;;4.57;1.50;;;21.50;1.00;;;;;;5013684;28;20199;-91
2023/07/15 01:19:58;;;;;;;4.17;1.70;;;21.50;1.00;;;;;;5012800;28;20292;-91
2023/07/15 01:22:25;;;;;;;2.27;1.50;;;21.40;1.00;;;;;;5012992;28;20272;-91
2023/07/15 01:24:51;;;;;;;2.67;1.50;;;21.50;1.00;;;;;;5013365;28;20176;-91
2023/07/15 01:27:18;;;;;;;2.23;1.50;;;21.60;1.00;;;;;;5017320;28;20550;-91
2023/07/15 01:29:43;;;;;;;7.83;1.97;;;21.40;1.00;;;;;;5018696;28;20188;-91
2023/07/15 01:32:09;;;;;;;1.40;1.20;;;21.40;1.00;;;;;;5017704;28;20177;-91
2023/07/15 01:34:36;;;;;;;5.17;1.73;;;21.50;1.00;;;;;;5018483;28;20245;-91
2023/07/15 01:37:02;;;;;;;2.43;1.67;;;21.60;1.00;;;;;;5016903;28;20231;-92
2023/07/15 01:39:27;;;;;;;3.40;1.63;;;21.50;1.00;;;;;;5016617;28;20196;-91
2023/07/15 01:41:55;;;;;;;2.23;1.53;;;21.50;1.00;;;;;;5018705;28;20204;-91
2023/07/15 01:44:22;;;;;;;2.97;1.70;;;21.40;1.00;;;;;;5019191;28;20180;-91
2023/07/15 01:46:47;;;;;;;2.73;1.50;;;21.40;1.00;;;;;;5018210;28;20180;-90
2023/07/15 01:49:13;;;;;;;5.23;1.57;;;21.40;1.00;;;;;;5019236;28;20173;-91
2023/07/15 01:51:39;;;;;;;4.33;1.67;;;21.50;1.00;;;;;;5016993;28;20196;-91
2023/07/15 01:54:04;;;;;;;5.23;1.47;;;21.40;1.00;;;;;;5017433;28;20263;-91
2023/07/15 01:56:30;;;;;;;2.80;1.43;;;21.60;1.00;;;;;;5018142;28;20180;-91
2023/07/15 01:58:56;;;;;;;4.93;1.40;;;21.40;1.00;;;;;;5016515;28;20173;-91
2023/07/15 02:01:22;;;;;;;2.47;1.50;;;21.40;1.00;;;;;;5016600;28;20185;-92
2023/07/15 02:03:48;;;;;;;4.23;1.67;;;21.70;1.00;;;;;;5017955;28;20643;-91
2023/07/15 02:06:14;;;;;;;4.27;1.70;;;21.60;1.00;;;;;;5017301;28;20183;-90
2023/07/15 02:08:40;;;;;;;3.17;1.80;;;21.50;1.00;;;;;;5029714;28;20207;-89
2023/07/15 02:11:05;;;;;;;3.97;1.30;;;21.40;1.00;;;;;;5039959;28;20212;-89
2023/07/15 02:13:31;;;;;;;2.57;1.70;;;21.50;1.00;;;;;;5035468;28;20236;-89
2023/07/15 02:15:56;;;;;;;2.17;1.50;;;21.50;1.00;;;;;;5022794;28;20192;-90
2023/07/15 02:18:24;;;;;;;3.37;1.57;;;21.50;1.00;;;;;;5019328;28;20641;-90
2023/07/15 02:20:49;;;;;;;3.60;1.70;;;22.00;1.00;;;;;;5017651;28;20197;-90
2023/07/15 02:23:15;;;;;;;5.30;1.80;;;21.60;1.00;;;;;;5018587;28;20182;-91
2023/07/15 02:25:41;;;;;;;3.43;2.10;;;21.70;1.00;;;;;;5017429;28;20249;-90
2023/07/15 02:28:06;;;;;;;2.63;1.50;;;21.60;1.00;;;;;;5017395;28;20541;-90
2023/07/15 02:30:32;;;;;;;2.30;1.23;;;21.50;1.00;;;;;;5016256;28;20684;-90
2023/07/15 02:32:58;;;;;;;7.43;2.10;;;21.50;1.00;;;;;;5016331;28;20592;-90
2023/07/15 02:35:23;;;;;;;3.77;1.50;;;21.40;1.00;;;;;;5016315;28;20177;-90
2023/07/15 02:37:49;;;;;;;6.67;1.57;;;21.30;1.00;;;;;;5015804;28;20300;-90
2023/07/15 02:40:16;;;;;;;3.10;1.60;;;21.40;1.00;;;;;;5016235;28;20687;-90
2023/07/15 02:42:42;;;;;;;5.10;1.80;;;21.30;1.00;;;;;;5015855;28;20252;-90
2023/07/15 02:45:10;;;;;;;1.50;1.30;;;21.30;1.00;;;;;;5015736;28;20213;-90
2023/07/15 02:47:37;;;;;;;2.77;1.70;;;21.30;1.00;;;;;;5016052;28;20599;-90
2023/07/15 02:50:05;;;;;;;1.77;1.53;;;21.50;1.00;;;;;;5016779;28;20208;-90
2023/07/15 02:52:32;;;;;;;2.73;1.70;;;21.30;1.00;;;;;;5015473;28;20181;-90
2023/07/15 02:54:59;;;;;;;2.87;1.73;;;21.30;1.00;;;;;;5017207;28;20169;-90
2023/07/15 02:57:24;;;;;;;3.27;1.57;;;21.40;1.00;;;;;;5023496;28;20215;-90
2023/07/15 02:59:50;;;;;;;3.07;1.80;;;21.50;1.00;;;;;;5017700;28;20217;-90
2023/07/15 03:02:15;;;;;;;2.10;1.47;;;21.20;1.00;;;;;;5015421;28;20708;-90
2023/07/15 03:04:41;;;;;;;6.07;1.67;;;21.20;1.00;;;;;;5015849;28;20551;-90
2023/07/15 03:07:09;;;;;;;3.50;1.53;;;21.20;1.00;;;;;;5015856;28;20281;-90
2023/07/15 03:09:35;;;;;;;3.37;1.97;;;21.10;1.00;;;;;;5015074;28;20197;-90
2023/07/15 03:12:01;;;;;;;4.57;1.77;;;21.20;1.00;;;;;;5015330;28;20568;-90
2023/07/15 03:14:26;;;;;;;2.50;1.57;;;21.10;1.00;;;;;;5015918;28;20180;-90
2023/07/15 03:16:52;;;;;;;6.87;1.60;;;21.10;1.00;;;;;;5018387;28;20177;-90
2023/07/15 03:19:17;;;;;;;2.73;1.87;;;21.10;1.00;;;;;;5018002;28;20196;-90
2023/07/15 03:21:43;;;;;;;2.63;1.23;;;21.10;1.00;;;;;;5014904;28;20199;-90
2023/07/15 03:24:08;;;;;;;2.63;1.53;;;20.90;1.00;;;;;;5015275;28;20649;-90
2023/07/15 03:26:34;;;;;;;6.50;1.80;;;21.10;1.00;;;;;;5016138;28;20208;-91
2023/07/15 03:29:00;;;;;;;3.93;1.70;;;21.10;1.00;;;;;;5015053;28;20215;-90
2023/07/15 03:31:25;;;;;;;3.57;1.67;;;21.00;1.00;;;;;;5014207;28;20213;-90
2023/07/15 03:33:53;;;;;;;5.57;1.40;;;21.00;1.00;;;;;;5014538;28;20655;-90
2023/07/15 03:36:19;;;;;;;4.73;1.80;;;21.00;1.00;;;;;;5014497;28;20222;-90
2023/07/15 03:38:44;;;;;;;2.57;1.70;;;21.00;1.00;;;;;;5014166;28;20271;-90
2023/07/15 03:41:10;;;;;;;2.23;1.53;;;21.00;1.00;;;;;;5014476;28;20263;-90
2023/07/15 03:43:35;;;;;;;2.30;1.50;;;21.00;1.00;;;;;;5014274;28;20554;-90
2023/07/15 03:46:01;;;;;;;3.40;1.80;;;20.90;1.00;;;;;;5014555;28;20627;-90
2023/07/15 03:48:26;;;;;;;4.43;1.50;;;20.90;1.00;;;;;;5013937;28;20177;-90
2023/07/15 03:50:52;;;;;;;2.40;1.60;;;21.10;1.00;;;;;;5015672;28;20232;-90
2023/07/15 03:53:18;;;;;;;4.10;2.10;;;20.90;1.00;;;;;;5015652;28;20542;-90
2023/07/15 03:55:43;;;;;;;5.37;1.73;;;20.90;1.00;;;;;;5014281;28;20400;-90
2023/07/15 03:58:09;;;;;;;2.80;1.70;;;20.90;1.00;;;;;;5014144;28;20180;-90
2023/07/15 04:00:34;;;;;;;6.67;1.97;;;20.90;1.00;;;;;;5014295;28;20224;-90
2023/07/15 04:03:01;;;;;;;3.57;1.37;;;20.90;1.00;;;;;;5014536;28;20177;-90
2023/07/15 04:05:27;;;;;;;2.23;1.57;;;21.00;1.00;;;;;;5014152;28;20550;-90
2023/07/15 04:07:53;;;;;;;1.40;1.30;;;20.90;1.00;;;;;;5014372;28;20244;-90
2023/07/15 04:10:19;;;;;;;3.50;1.30;;;21.00;1.00;;;;;;5014359;28;20586;-90
2023/07/15 04:12:44;;;;;;;3.00;1.47;;;21.00;1.00;;;;;;5014044;28;20181;-91
2023/07/15 04:15:10;;;;;;;2.83;1.53;;;21.20;1.00;;;;;;5014013;28;20578;-90
2023/07/15 04:17:35;;;;;;;6.27;1.50;;;21.00;1.00;;;;;;5014490;28;20696;-90
2023/07/15 04:20:07;;;;;;;2.00;1.43;;;21.00;1.00;;;;;;5015654;28;20247;-90
2023/07/15 04:22:37;;;;;;;2.60;1.63;;;20.90;1.00;;;;;;5017032;28;20190;-90
2023/07/15 04:25:02;;;;;;;2.70;1.60;;;21.00;1.00;;;;;;5038097;28;20156;-91
2023/07/15 04:27:28;;;;;;;2.27;1.40;;;21.00;1.00;;;;;;5033891;28;20176;-91
2023/07/15 04:29:54;;;;;;;2.20;1.47;;;21.00;1.00;;;;;;5034476;28;20216;-90
2023/07/15 04:32:19;;;;;;;3.00;1.30;;;20.80;1.00;;;;;;5037148;28;20164;-89
2023/07/15 04:34:49;;;;;;;4.80;1.40;;;21.20;1.00;;;;;;5036555;28;20189;-90
2023/07/15 04:37:15;;;;;;;3.23;1.57;;;21.00;1.00;;;;;;5025247;28;20165;-90
2023/07/15 04:39:41;;;;;;;3.20;1.50;;;21.00;1.00;;;;;;5014906;28;20204;-90
2023/07/15 04:42:06;;;;;;;2.13;1.40;;;20.90;1.00;;;;;;5018501;28;20560;-90
2023/07/15 04:44:32;;;;;;;2.97;1.50;;;21.20;1.00;;;;;;5019333;28;20175;-90
2023/07/15 04:46:58;;;;;;;4.67;1.80;;;21.40;1.00;;;;;;5014481;28;20271;-90
2023/07/15 04:49:23;;;;;;;7.70;1.70;;;21.30;1.00;;;;;;5014359;28;20205;-90
2023/07/15 04:51:49;;;;;;;2.70;1.53;;;21.00;1.00;;;;;;5013679;28;20208;-90
2023/07/15 04:54:15;;;;;;;3.93;1.67;;;20.90;1.00;;;;;;5013931;28;20264;-90
2023/07/15 04:56:41;;;;;;;3.00;1.63;;;20.90;1.00;;;;;;5014219;28;20208;-90
2023/07/15 04:59:07;;;;;;;4.17;1.93;;;21.80;1.00;;;;;;5013471;28;20188;-90
2023/07/15 05:01:33;;;;;;;2.53;1.60;;;20.80;1.00;;;;;;5012975;28;20545;-90
2023/07/15 05:03:59;;;;;;;3.30;1.80;;;21.10;1.00;;;;;;5013794;28;20180;-90
2023/07/15 05:06:25;;;;;;;2.47;1.40;;;20.90;1.00;;;;;;5013459;28;20647;-90
2023/07/15 05:08:51;;;;;;;2.17;1.40;;;20.90;1.00;;;;;;5013637;28;20272;-90
2023/07/15 05:11:19;;;;;;;5.37;1.70;;;21.00;1.00;;;;;;5013104;28;20219;-90
2023/07/15 05:13:44;;;;;;;2.60;1.60;;;21.10;1.00;;;;;;5014547;28;20177;-90
2023/07/15 05:16:12;;;;;;;6.23;2.10;;;20.90;1.00;;;;;;5013314;28;20342;-91
2023/07/15 05:18:38;;;;;;;3.53;1.63;;;20.80;1.00;;;;;;5013400;28;20180;-90
2023/07/15 05:21:03;;;;;;;5.60;1.63;;;21.00;1.00;;;;;;5013061;28;20192;-91
2023/07/15 05:23:31;;;;;;;2.60;1.33;;;21.00;1.00;;;;;;5014645;28;20185;-91
2023/07/15 05:25:58;;;;;;;2.17;1.40;;;21.00;1.00;;;;;;5013112;28;20200;-90
2023/07/15 05:28:30;;;;;;;5.33;1.63;;;21.00;1.00;;;;;;5013414;28;20613;-90
2023/07/15 05:30:57;;;;;;;2.13;1.20;;;21.10;1.00;;;;;;5012953;28;20507;-90
2023/07/15 05:33:23;;;;;;;3.17;1.50;;;21.10;1.00;;;;;;5012795;28;20232;-90
2023/07/15 05:35:49;;;;;;;2.17;1.50;;;21.20;1.00;;;;;;5013192;28;20173;-90
2023/07/15 05:38:14;;;;;;;5.23;1.80;;;21.30;1.00;;;;;;5012901;28;20181;-91
2023/07/15 05:40:41;;;;;;;2.83;1.80;;;21.10;1.00;;;;;;5012301;28;20296;-90
2023/07/15 05:43:07;;;;;;;5.03;1.50;;;21.30;1.00;;;;;;5014257;28;20169;-90
2023/07/15 05:45:33;;;;;;;2.63;1.40;;;21.70;1.00;;;;;;5013066;28;20655;-91
2023/07/15 05:47:58;;;;;;;2.70;1.50;;;21.50;1.00;;;;;;5012832;28;20189;-90
2023/07/15 05:50:24;;;;;;;4.50;1.63;;;21.30;1.00;;;;;;5012740;28;20219;-90
2023/07/15 05:52:49;;;;;;;4.43;1.87;;;21.30;1.00;;;;;;5013451;28;20165;-90
2023/07/15 05:55:16;;;;;;;3.07;1.37;;;21.40;1.00;;;;;;5016549;28;20173;-91
2023/07/15 05:57:42;;;;;;;3.63;1.73;;;21.50;1.00;;;;;;5012857;28;20173;-90
2023/07/15 06:00:09;;;;;;;6.03;1.50;;;21.50;1.00;;;;;;5014148;28;20227;-90
2023/07/15 06:02:36;;;;;;;5.23;1.70;;;21.50;1.00;;;;;;5012622;28;20666;-90
2023/07/15 06:05:02;;;;;;;4.27;1.73;;;21.60;1.00;;;;;;5012880;28;20197;-91
2023/07/15 06:07:28;;;;;;;2.03;1.70;;;21.60;1.00;;;;;;5012720;28;20181;-90
2023/07/15 06:09:53;;;;;;;4.17;1.60;;;21.60;1.00;;;;;;5013780;28;20216;-90
2023/07/15 06:12:19;;;;;;;4.60;1.50;;;21.70;1.00;;;;;;5013633;28;20173;-90
2023/07/15 06:14:44;;;;;;;4.37;1.47;;;21.80;1.00;;;;;;5017807;28;20169;-90
2023/07/15 06:17:10;;;;;;;3.27;1.67;;;21.90;1.00;;;;;;5016253;28;20673;-91
2023/07/15 06:19:36;;;;;;;4.60;1.80;;;21.80;1.00;;;;;;5016134;28;20699;-90
2023/07/15 06:22:02;;;;;;;1.93;1.43;;;21.80;1.00;;;;;;5017456;28;20181;-90
2023/07/15 06:24:27;;;;;;;3.50;1.80;;;21.80;1.00;;;;;;5017430;28;20188;-90
2023/07/15 06:26:53;;;;;;;3.37;1.67;;;21.90;1.00;;;;;;5016386;28;20199;-90
2023/07/15 06:29:18;;;;;;;2.83;1.80;;;22.00;1.00;;;;;;5016661;28;20569;-90
2023/07/15 06:31:44;;;;;;;3.10;1.67;;;22.00;1.00;;;;;;5019631;28;20718;-90
2023/07/15 06:34:10;;;;;;;3.17;1.70;;;22.10;1.00;;;;;;5017810;28;20196;-91
2023/07/15 06:36:36;;;;;;;3.07;1.57;;;22.20;1.00;;;;;;5027497;28;20185;-88
2023/07/15 06:39:02;;;;;;;2.00;1.40;;;22.50;1.00;;;;;;5039353;28;20169;-90
2023/07/15 06:41:28;;;;;;;4.33;1.63;;;22.30;1.00;;;;;;5035829;28;20196;-91
2023/07/15 06:43:53;;;;;;;8.93;1.70;;;22.40;1.00;;;;;;5022361;28;20658;-90
2023/07/15 06:46:19;;;;;;;3.93;1.50;;;22.60;1.00;;;;;;5019884;28;20195;-90
2023/07/15 06:48:45;;;;;;;3.00;1.77;;;22.80;1.00;;;;;;5016351;28;20181;-90
2023/07/15 06:51:14;;;;;;;6.43;2.00;;;22.60;1.00;;;;;;5015807;28;20216;-91
2023/07/15 06:53:40;;;;;;;9.57;1.73;;;23.00;1.00;;;;;;5015646;28;20177;-90
2023/07/15 06:56:06;;;;;;;4.60;1.60;;;23.10;1.00;;;;;;5015357;28;20177;-91
2023/07/15 06:58:31;;;;;;;4.40;1.63;;;23.10;1.00;;;;;;5015592;28;20670;-92
2023/07/15 07:00:57;;;;;;;5.47;2.00;;;23.10;1.00;;;;;;5016423;28;20274;-91
2023/07/15 07:03:22;;;;;;;3.93;1.63;;;23.30;1.00;;;;;;5016943;28;20675;-91
2023/07/15 07:05:48;;;;;;;4.73;1.40;;;23.60;1.00;;;;;;5015324;28;20185;-90
2023/07/15 07:08:13;;;;;;;3.17;1.67;;;23.70;1.00;;;;;;5015332;28;20232;-91
2023/07/15 07:10:39;;;;;;;2.97;1.20;;;23.90;1.00;;;;;;5015239;28;20205;-90
2023/07/15 07:13:04;;;;;;;2.70;1.20;;;24.00;1.00;;;;;;5015160;28;20335;-90
2023/07/15 07:15:30;;;;;;;2.63;1.57;;;24.10;1.00;;;;;;5015241;28;20251;-90
2023/07/15 07:17:56;;;;;;;1.93;1.40;;;24.20;1.00;;;;;;5015079;28;20255;-91
2023/07/15 07:20:21;;;;;;;6.50;1.60;;;24.40;99.90;;;;;;5015024;28;20659;-90
2023/07/15 07:22:47;;;;;;;3.07;1.20;;;24.50;1.00;;;;;;5014709;28;20239;-91
2023/07/15 07:25:13;;;;;;;3.07;1.40;;;24.60;1.00;;;;;;5014058;28;20181;-91
2023/07/15 07:27:39;;;;;;;4.93;1.50;;;24.50;1.00;;;;;;5015040;28;20177;-91
2023/07/15 07:30:05;;;;;;;2.90;1.90;;;24.60;99.90;;;;;;5017405;28;20226;-91
2023/07/15 07:32:30;;;;;;;4.70;1.20;;;24.60;99.90;;;;;;5015524;28;20181;-91
2023/07/15 07:34:58;;;;;;;4.77;1.70;;;24.60;1.00;;;;;;5014996;28;20200;-90
2023/07/15 07:37:23;;;;;;;3.53;1.35;;;24.60;99.90;;;;;;5015226;28;20685;-91
2023/07/15 07:39:49;;;;;;;4.40;1.20;;;24.50;1.00;;;;;;5014788;28;20197;-91
2023/07/15 07:42:15;;;;;;;8.83;1.40;;;24.60;1.00;;;;;;5016046;28;20161;-91
2023/07/15 07:44:40;;;;;;;3.53;1.50;;;24.70;1.00;;;;;;5014619;28;20173;-91
2023/07/15 07:47:06;;;;;;;2.17;1.48;;;24.70;1.00;;;;;;5014455;28;20271;-91
2023/07/15 07:49:31;;;;;;;3.10;1.40;;;24.70;1.00;;;;;;5014935;28;20193;-91
2023/07/15 07:51:57;;;;;;;3.88;1.38;;;24.60;1.00;;;;;;5014385;28;20251;-91
2023/07/15 07:54:22;;;;;;;4.70;1.50;;;24.90;1.00;;;;;;5013931;28;20185;-91
2023/07/15 07:56:48;;;;;;;1.48;1.38;;;24.90;1.00;;;;;;5014391;28;20177;-91
2023/07/15 07:59:13;;;;;;;4.28;1.52;;;25.30;1.00;;;;;;5014125;28;20197;-91
2023/07/15 08:01:39;;;;;;;3.17;1.40;;;24.80;1.00;;;;;;5014505;28;20177;-91
2023/07/15 08:04:05;;;;;;;3.28;1.48;;;24.90;1.00;;;;;;5022481;28;20197;-91
2023/07/15 08:06:30;;;;;;;6.18;1.42;;;24.90;1.00;;;;;;5025354;28;20264;-91
2023/07/15 08:08:56;;;;;;;2.60;1.55;;;25.00;1.00;;;;;;5018358;28;20223;-91
2023/07/15 08:11:21;;;;;;;5.43;1.55;;;24.90;1.00;;;;;;5014079;28;20200;-91
2023/07/15 08:13:47;;;;;;;2.50;1.52;;;25.00;99.90;;;;;;5013918;28;20643;-91
2023/07/15 08:16:36;;;;;;;2.75;1.60;;;25.20;99.90;;;;;;5014584;28;20239;-91
2023/07/15 08:19:03;;;;;;;4.40;1.60;;;25.20;99.90;;;;;;5016987;28;20165;-91
2023/07/15 08:21:29;;;;;;;3.20;1.58;;;25.30;99.90;;;;;;5014464;28;20187;-91
2023/07/15 08:23:55;;;;;;;4.93;1.65;;;25.40;99.90;;;;;;5014386;28;20267;-91
2023/07/15 08:26:22;;;;;;;3.13;2.05;;;25.50;99.90;;;;;;5013755;28;20173;-91
2023/07/15 08:28:47;;;;;;;2.50;1.60;;;25.60;99.90;;;;;;5014373;28;20528;-91
2023/07/15 08:31:13;;;;;;;2.40;1.33;;;25.80;99.90;;;;;;5014332;28;20258;-90
2023/07/15 08:33:39;;;;;;;2.50;1.50;;;25.90;99.90;;;;;;5017942;28;20268;-91
2023/07/15 08:36:05;;;;;;;4.63;1.50;;;25.90;99.90;;;;;;5014736;28;20508;-91
2023/07/15 08:38:31;;;;;;;3.13;1.63;;;25.90;99.90;;;;;;5014159;28;20222;-91
2023/07/15 08:41:00;;;;;;;2.45;1.40;;;25.90;99.90;;;;;;5015451;28;20643;-91
2023/07/15 08:43:28;;;;;;;3.63;1.80;;;25.90;99.90;;;;;;5014438;28;20176;-91
2023/07/15 08:45:57;;;;;;;5.40;1.40;;;25.90;99.90;;;;;;5014339;28;20182;-91
2023/07/15 08:48:22;;;;;;;3.75;1.52;;;25.90;99.90;;;;;;5014146;28;20180;-91
2023/07/15 08:50:49;;;;;;;5.88;1.20;;;26.00;99.90;;;;;;5016754;28;20216;-91
2023/07/15 08:53:21;;;;;;;3.67;1.52;;;25.90;99.90;;;;;;5031995;28;20273;-91
2023/07/15 08:55:48;;;;;;;4.80;1.60;;;25.70;99.90;;;;;;5028823;28;20176;-91
2023/07/15 08:58:14;;;;;;;3.65;1.90;;;25.90;99.90;;;;;;5019293;28;20173;-91
2023/07/15 09:00:39;;;;;;;2.42;1.33;;;25.70;99.90;;;;;;5014930;28;20208;-90
2023/07/15 09:03:05;;;;;;;3.15;1.40;;;25.70;99.90;;;;;;5014821;28;20682;-92
2023/07/15 09:05:31;;;;;;;1.95;1.13;;;25.50;1.00;;;;;;5015036;28;20248;-91
2023/07/15 09:07:57;;;;;;;3.53;1.30;;;25.50;1.00;;;;;;5015642;28;20537;-92
2023/07/15 09:10:24;;;;;;;4.68;1.50;;;25.50;1.00;;;;;;5014803;28;20702;-92
2023/07/15 09:12:54;;;;;;;2.88;1.60;;;25.50;1.00;;;;;;5014800;28;20172;-92
2023/07/15 09:15:20;;;;;;;4.47;1.50;;;25.30;1.00;;;;;;5014845;28;20651;-91
2023/07/15 09:17:53;;;;;;;2.65;1.30;;;25.20;1.00;;;;;;5014674;28;20191;-91
2023/07/15 09:20:19;;;;;;;4.47;1.50;;;25.20;1.00;;;;;;5016020;28;20279;-92
2023/07/15 09:22:54;;;;;;;3.47;1.85;;;25.10;1.00;;;;;;5014349;28;20188;-91
2023/07/15 09:25:22;;;;;;;5.47;1.40;;;24.80;48.60;;;;;;5015865;28;20180;-92
2023/07/15 09:27:48;;;;;;;1.58;1.08;;;24.80;99.90;;;;;;5016299;28;20173;-92
2023/07/15 09:30:14;;;;;;;2.22;1.30;;;24.50;99.90;;;;;;5013991;28;20548;-92
2023/07/15 09:32:39;;;;;;;3.30;1.33;;;24.40;99.90;;;;;;5012851;28;20465;-92
2023/07/15 09:35:06;;;;;;;6.95;1.58;;;24.30;99.90;;;;;;5012889;28;20173;-92
2023/07/15 09:37:32;;;;;;;1.77;1.20;;;24.20;99.90;;;;;;5013150;28;20177;-92
2023/07/15 09:40:08;;;;;;;4.65;1.33;;;24.00;99.90;;;;;;5013359;28;20192;-92
2023/07/15 09:42:53;;;;;;;3.97;1.37;;;24.00;99.90;;;;;;5014711;28;20244;-92
2023/07/15 09:45:45;;;;;;;2.03;1.45;;;23.90;1.00;;;;;;5013343;28;20607;-92
2023/07/15 09:48:13;;;;;;;2.17;1.53;;;23.70;1.00;;;;;;5015170;28;20184;-92
2023/07/15 09:50:40;;;;;;;3.20;1.40;;;23.70;1.00;;;;;;5016901;28;20201;-92
2023/07/15 09:53:06;;;;;;;1.40;1.30;;;23.60;1.00;;;;;;5017537;28;20176;-92
2023/07/15 09:55:33;;;;;;;1.90;1.70;;;23.40;1.00;;;;;;5016906;28;20598;-92
2023/07/15 09:58:22;;;;;;;2.30;1.77;;;23.30;1.00;;;;;;5018229;28;20248;-92
2023/07/15 10:00:56;;;;;;;2.03;1.67;;;23.20;1.00;;;;;;5018347;28;20216;-92
2023/07/15 10:03:42;;;;;;;2.40;1.67;;;22.90;1.00;;;;;;5027957;28;20197;-92
2023/07/15 10:06:08;;;;;;;5.03;1.90;;;22.90;1.00;;;;;;5018096;28;20176;-92
2023/07/15 10:08:35;;;;;;;2.83;1.67;;;22.60;1.00;;;;;;5016795;28;20176;-92
2023/07/15 10:11:01;;;;;;;4.07;1.93;;;22.60;1.50;;;;;;5016530;28;20224;-92
2023/07/15 10:13:27;;;;;;;3.17;1.83;;;22.70;29.50;;;;;;5018901;28;20315;-92
2023/07/15 10:15:53;;;;;;;2.30;1.80;;;22.80;82.30;;;;;;5018258;28;20184;-92
2023/07/15 10:18:20;;;;;;;2.70;1.90;;;22.50;99.90;;;;;;5016402;28;20181;-92
2023/07/15 10:20:53;;;;;;;3.47;1.90;;;22.60;99.90;;;;;;5016599;28;20201;-92
2023/07/15 10:23:25;;;;;;;5.63;1.73;;;22.60;99.90;;;;;;5018678;28;20161;-92
2023/07/15 10:26:20;;;;;;;3.87;2.43;;;22.60;99.90;;;;;;5016445;28;20169;-92
2023/07/15 10:28:52;;;;;;;4.33;2.13;;;22.60;99.90;;;;;;5017254;28;20607;-92
2023/07/15 10:31:23;;;;;;;4.97;1.83;;;22.50;99.90;;;;;;5016086;28;20205;-93
2023/07/15 10:34:03;;;;;;;4.47;2.20;;;22.40;99.90;;;;;;5016733;28;20178;-92
2023/07/15 10:36:40;;;;;;;3.37;2.07;;;22.40;99.90;;;;;;5016661;28;20172;-92
2023/07/15 10:39:14;;;;;;;2.93;2.03;;;22.50;99.90;;;;;;5016690;28;20176;-92
2023/07/15 10:41:52;;;;;;;2.60;1.90;;;22.70;99.90;;;;;;5018307;28;20663;-92
2023/07/15 10:44:20;;;;;;;4.23;2.27;;;22.90;99.90;;;;;;5016720;28;20180;-92
2023/07/15 10:46:59;;;;;;;6.10;2.20;;;22.80;99.90;;;;;;5015781;28;20172;-92
2023/07/15 10:49:24;;;;;;;3.33;2.03;;;22.90;99.90;;;;;;5016925;28;20223;-92
2023/07/15 10:51:54;;;;;;;2.53;2.13;;;23.00;99.90;;;;;;5016148;28;20200;-93
2023/07/15 10:54:26;;;;;;;4.90;1.97;;;23.10;99.90;;;;;;5015878;28;20192;-92
2023/07/15 10:56:51;;;;;;;4.97;2.27;;;23.20;99.90;;;;;;5015653;28;20667;-93
2023/07/15 10:59:17;;;;;;;3.60;2.30;;;23.30;99.90;;;;;;5015026;28;20299;-92
2023/07/15 11:01:43;;;;;;;4.90;2.30;;;23.60;99.00;;;;;;5015319;28;20169;-92
2023/07/15 11:04:09;;;;;;;3.80;2.17;;;23.60;76.70;;;;;;5015411;28;20327;-92
2023/07/15 11:06:35;;;;;;;3.43;1.90;;;23.50;33.40;;;;;;5016839;28;20184;-93
2023/07/15 11:09:20;;;;;;;3.17;1.90;;;23.50;22.60;;;;;;5025956;28;20177;-92
2023/07/15 11:11:47;;;;;;;4.13;2.30;;;23.60;38.40;;;;;;5014397;28;20207;-93
2023/07/15 11:14:27;;;;;;;3.20;2.10;;;23.80;26.00;;;;;;5014337;28;20180;-92
2023/07/15 11:16:55;;;;;;;4.07;2.30;;;23.90;12.60;;;;;;5014624;28;20176;-92
2023/07/15 11:19:27;;;;;;;3.73;2.20;;;23.90;1.00;;;;;;5014610;28;20193;-92
2023/07/15 11:21:54;;;;;;;3.93;2.30;;;24.30;1.00;;;;;;5014496;28;20169;-93
2023/07/15 11:24:25;;;;;;;6.47;2.47;;;24.30;1.00;;;;;;5014467;28;20184;-92
2023/07/15 11:26:51;;;;;;;4.80;2.40;;;24.40;1.00;;;;;;5014551;28;20177;-92
2023/07/15 11:29:18;;;;;;;6.50;2.20;;;24.50;1.00;;;;;;5014218;28;20279;-92
2023/07/15 11:31:45;;;;;;;3.37;2.17;;;24.50;1.00;;;;;;5014493;28;20549;-92
2023/07/15 11:34:11;;;;;;;2.73;2.10;;;24.60;1.00;;;;;;5014404;28;20177;-92
2023/07/15 11:36:38;;;;;;;4.40;2.40;;;24.70;1.00;;;;;;5014079;28;20655;-92
2023/07/15 11:39:07;;;;;;;4.65;2.30;;;24.80;1.00;;;;;;5014183;28;20231;-92
2023/07/15 11:41:39;;;;;;;3.20;2.03;;;24.80;1.00;;;;;;5014026;28;20176;-92
2023/07/15 11:44:15;;;;;;;4.20;2.27;;;24.80;1.00;;;;;;5014078;28;20169;-92
2023/07/15 11:46:44;;;;;;;5.50;2.10;;;24.70;1.00;;;;;;5014787;28;20268;-92
2023/07/15 11:49:10;;;;;;;3.42;2.10;;;24.60;1.00;;;;;;5017367;28;20184;-92
2023/07/15 11:51:41;;;;;;;2.33;2.00;;;24.60;1.00;;;;;;5015552;28;20197;-92
2023/07/15 11:54:11;;;;;;;2.87;1.77;;;24.70;1.00;;;;;;5014128;28;20207;-92
2023/07/15 11:56:47;;;;;;;3.17;2.00;;;24.70;1.00;;;;;;5014027;28;20176;-92
2023/07/15 11:59:29;;;;;;;5.13;1.90;;;24.90;1.00;;;;;;5014051;28;20169;-92
2023/07/15 12:01:59;;;;;;;2.60;1.88;;;24.90;1.00;;;;;;5014024;28;20176;-92
2023/07/15 12:04:27;;;;;;;4.10;1.88;;;25.00;1.00;;;;;;5013946;28;20176;-93
2023/07/15 12:06:53;;;;;;;2.47;1.80;;;25.10;1.00;;;;;;5013666;28;20215;-92
2023/07/15 12:09:21;;;;;;;3.30;1.80;;;25.10;1.00;;;;;;5013483;28;20204;-92
2023/07/15 12:11:48;;;;;;;2.83;2.10;;;25.20;1.00;;;;;;5013460;28;20201;-92
2023/07/15 12:14:15;;;;;;;2.88;1.83;;;25.10;1.00;;;;;;5014921;28;20180;-92
2023/07/15 12:16:41;;;;;;;1.95;1.83;;;25.10;1.00;;;;;;5013391;28;20181;-92
2023/07/15 12:19:18;;;;;;;3.33;1.90;;;24.90;1.00;;;;;;5013910;28;20279;-92
2023/07/15 12:21:44;;;;;;;1.80;1.65;;;25.00;1.00;;;;;;5013783;28;20173;-92
2023/07/15 12:24:09;;;;;;;2.92;2.03;;;25.00;1.00;;;;;;5013624;28;20184;-92
2023/07/15 12:26:35;;;;;;;2.20;1.80;;;24.90;1.00;;;;;;5013310;28;20191;-92
2023/07/15 12:29:01;;;;;;;2.47;1.90;;;24.80;1.00;;;;;;5013163;28;20212;-92
2023/07/15 12:31:27;;;;;;;2.22;1.70;;;24.80;1.00;;;;;;5012865;28;20236;-92
2023/07/15 12:33:52;;;;;;;2.55;1.90;;;24.70;1.00;;;;;;5013113;28;20173;-91
2023/07/15 12:36:18;;;;;;;3.72;1.90;;;24.80;1.00;;;;;;5013064;28;20196;-93
2023/07/15 12:38:44;;;;;;;2.20;1.95;;;24.70;1.00;;;;;;5012834;28;20212;-91
2023/07/15 12:41:11;;;;;;;3.28;1.92;;;24.80;1.00;;;;;;5012887;28;20667;-92
2023/07/15 12:43:38;;;;;;;3.70;2.10;;;25.10;1.00;;;;;;5013048;28;20203;-92
2023/07/15 12:46:03;;;;;;;4.60;2.08;;;25.20;1.00;;;;;;5013047;28;20620;-92
2023/07/15 12:48:29;;;;;;;2.90;1.90;;;25.00;1.00;;;;;;5013031;28;20181;-92
2023/07/15 12:50:55;;;;;;;2.15;1.88;;;25.30;1.00;;;;;;5013968;28;20220;-92
2023/07/15 12:53:22;;;;;;;3.45;1.95;;;25.20;1.00;;;;;;5013605;28;20189;-92
2023/07/15 12:55:49;;;;;;;5.50;2.20;;;25.20;1.00;;;;;;5012948;28;20272;-92